Grand Junction, CO (81501)

5:34 PM MDT on August 26, 2016 (GMT -0600)
Chipeta Ave south of Washington Park | | Change Station

Elev 4603 ft 39.07 °N, 108.56 °W | Updated 1 second ago

Clear
Clear
79.1 °F
Feels Like 79 °F
N
0.0
Wind Variable Wind from WNW
Gusts 2.0 mph

Today
High -- | Low -- °F
--% Chance of Precip.
Yesterday
High -- | Low -- °F
Precip. -- in
Pressure 29.88 in
Visibility 10.0 miles
Clouds Clear
Heat Index 79 °F
Dew Point 52 °F
Humidity 39%
Rainfall 0.00 in
Snow Depth Not available.
6:38 AM 7:52 PM
Waning Crescent, 30% visible
METAR KGJT 262253Z 00000KT 10SM CLR 26/09 A3005 RMK AO2 SLP119 T02560089
Pressure 29.88 in
Visibility 10.0 miles
Clouds Clear
Heat Index 79 °F
Dew Point 52 °F
Humidity 39%
Rainfall 0.00 in
Snow Depth Not available.
6:38 AM 7:52 PM
Waning Crescent, 30% visible
METAR KGJT 262253Z 00000KT 10SM CLR 26/09 A3005 RMK AO2 SLP119 T02560089

10-Day Weather Forecast

Almanac

Astronomy

Aug. 26, 2016 Rise Set
Actual Time
Civil Twilight
Nautical Twilight
Astronomical Twilight
Moon
Length of Visible Light
Length of Day
Tomorrow will be .
, % of the Moon is Illuminated

Today's Extremes

State Highs State Lows

Community

WunderPhotos

Upload Photos

1,935,255 photos uploaded!

WunderBlog® & News

Nearby

Air Quality

  Air Quality AQ Index Pollutant
Not available.

Snow Depth

Station Depth Elevation

Earthquake Activity

City Distance Mag. Time & Date
Minimum magnitude displayed is 2.5.

Coastal Water Temperatures

Place Temperature

Stations

Nearby Weather Stations

Station Location Temp. Windchill Dew Point Humidity Wind Precip. Elev Updated Type
                   

Watches & Warnings

There are currently no watches in effect.